KAGC METAR
PITTSBURGH/ALLEG, PA
Metar
KAGC 250453Z 28005KT 10SM CLR 19/12 A3001 RMK AO2 SLP159 T01890117 402670189

04:53 UTC

Wind: 280° 5kt

Visibility: 10 SM

Sky:

Temp: 19 deg C / 66.2 deg F

Dewpoint: 12 deg C / 53.6 deg F

Pressure: 30.01 inHg

TAF
KAGC 242320Z 2500/2524 27007KT P6SM SKC FM251500 26011G20KT P6SM SCT060